Accueil
METAR-TAF:

METAR-TAF

Aéroports :

Aéroport Sandro-Pertini de Turin Caselle

Turin, Italie

latitude: 45-13N, longitude: 007-39E, altitude: 301 m

Observation

Le bulletin a été fait il y a 47 minutes, à 10:20 UTC
Vent 6 kt de est/sud-est, variant entre est/nord-est et sud/sud-est
Température 28°C
Humidité 55%
Pression 1013 hPa
Visibilité 10 km ou plus
Quelques nuages à une hauteur de 3500 ft

METAR: LIMF 301020Z 11006KT 070V150 9999 FEW035 28/18 Q1013

Heure: 13:07 (11:07 UTC)

Prévision

Le bulletin a été fait il y a 6 heures et 7 minutes, à 05:00 UTC
Prévision valable du 30 à 06 UTC au 01 à 06 UTC
Vent 5 kt de direction variable
Visibilité 10 km ou plus
Nuages épars à une hauteur de 4000 ft
Temporairement
du 30 à 14 UTC au 30 à 24 UTC
orage, pluie

TAF: LIMF 300500Z 3006/0106 VRB05KT 9999 SCT040 TEMPO 3014/3024 TSRA

Observations et prévisions météorologiques de plus de 4000 aéroports (messages METAR et TAF).

Les stations disponibles sont représentées par des disques jaunes et rouges sur la carte.

Passer la souris dessus pour voir le nom de la station.

Cliquer dessus pour voir les observations et prévisions météorologiques.

Pour changer de carte: cliquez sur les boutons verts avec une croix noire pour zoomer, sur le bouton vert avec un tiret pour effectuer un zoom arrière, ou sur les flèches vertes pour les cartes adjacentes.


METAR-TAF: